Time;durP1;ratioP1;P1;durP2;ratioP2;P2;SDS_P1;SDS_P2;PMS_P1;PMS_P2;Temp;Humidity;BMP_temperature;BMP_pressure;BME280_temperature;BME280_humidity;BME280_pressure;Samples;Min_cycle;Max_cycle;Signal;HPM_P1;HPM_P2
2023/08/03 00:01:18;;;;;;;3.35;2.42;;;;;;;;;;10368056;28;20202;-57
2023/08/03 00:06:19;;;;;;;2.85;2.10;;;;;;;;;;10367282;28;20080;-57
2023/08/03 00:11:19;;;;;;;3.63;2.20;;;;;;;;;;10370492;28;20471;-57
2023/08/03 00:16:20;;;;;;;2.33;2.00;;;;;;;;;;10375994;28;20302;-58
2023/08/03 00:21:21;;;;;;;3.67;2.25;;;;;;;;;;10375221;28;20386;-57
2023/08/03 00:26:21;;;;;;;3.17;2.35;;;;;;;;;;10375003;28;20022;-57
2023/08/03 00:31:22;;;;;;;3.95;2.00;;;;;;;;;;10374875;28;20109;-57
2023/08/03 00:36:22;;;;;;;3.10;2.08;;;;;;;;;;10374826;28;20426;-57
2023/08/03 00:41:23;;;;;;;3.10;2.00;;;;;;;;;;10375497;28;20033;-57
2023/08/03 00:46:24;;;;;;;2.53;2.00;;;;;;;;;;10374578;28;20484;-57
2023/08/03 00:51:24;;;;;;;1.85;1.70;;;;;;;;;;10374133;28;20033;-57
2023/08/03 00:56:25;;;;;;;2.20;2.00;;;;;;;;;;10374021;28;20484;-57
2023/08/03 01:01:26;;;;;;;2.50;1.80;;;;;;;;;;10373624;28;20037;-58
2023/08/03 01:06:27;;;;;;;7.82;1.80;;;;;;;;;;10372675;28;20177;-56
2023/08/03 01:11:29;;;;;;;2.72;2.05;;;;;;;;;;10373907;28;20566;-56
2023/08/03 01:16:29;;;;;;;2.13;1.83;;;;;;;;;;10373092;28;20088;-56
2023/08/03 01:21:31;;;;;;;2.22;1.77;;;;;;;;;;10372518;28;20045;-55
2023/08/03 01:26:32;;;;;;;2.40;2.20;;;;;;;;;;10371882;28;20492;-54
2023/08/03 01:31:33;;;;;;;2.60;1.77;;;;;;;;;;10372589;28;20034;-56
2023/08/03 01:36:34;;;;;;;2.05;1.65;;;;;;;;;;10371163;28;20490;-56
2023/08/03 01:41:36;;;;;;;3.08;1.85;;;;;;;;;;10372311;28;20033;-56
2023/08/03 01:46:37;;;;;;;2.35;1.73;;;;;;;;;;10372381;28;20030;-56
2023/08/03 01:51:40;;;;;;;2.08;1.80;;;;;;;;;;10372088;28;20030;-56
2023/08/03 01:56:40;;;;;;;3.22;1.85;;;;;;;;;;10371402;28;20041;-56
2023/08/03 02:01:41;;;;;;;1.83;1.50;;;;;;;;;;10371551;28;20041;-56
2023/08/03 02:06:47;;;;;;;3.13;1.70;;;;;;;;;;10370239;28;20061;-55
2023/08/03 02:18:04;;;;;;;2.22;1.63;;;;;;;;;;10371705;28;20038;-58
2023/08/03 02:23:04;;;;;;;2.08;1.88;;;;;;;;;;10371686;28;20018;-57
2023/08/03 02:28:05;;;;;;;1.80;1.70;;;;;;;;;;10370313;28;20033;-57
2023/08/03 02:33:06;;;;;;;1.77;1.67;;;;;;;;;;10370094;28;20061;-58
2023/08/03 02:38:07;;;;;;;1.95;1.70;;;;;;;;;;10369912;28;20045;-58
2023/08/03 02:43:07;;;;;;;3.10;1.88;;;;;;;;;;10370666;28;20113;-58
2023/08/03 02:48:08;;;;;;;1.83;1.55;;;;;;;;;;10370775;28;20044;-58
2023/08/03 02:53:08;;;;;;;1.70;1.50;;;;;;;;;;10370163;28;20022;-58
2023/08/03 02:58:09;;;;;;;2.50;1.80;;;;;;;;;;10369852;28;20389;-58
2023/08/03 03:03:09;;;;;;;1.88;1.52;;;;;;;;;;10369317;28;20022;-58
2023/08/03 03:08:10;;;;;;;2.58;1.80;;;;;;;;;;10368989;28;20034;-58
2023/08/03 03:13:11;;;;;;;2.00;1.80;;;;;;;;;;10369369;28;20099;-58
2023/08/03 03:18:11;;;;;;;2.20;1.90;;;;;;;;;;10369178;28;20049;-58
2023/08/03 03:41:59;;;;;;;1.63;1.52;;;;;;;;;;5410494;28;21431;-58
2023/08/03 03:47:00;;;;;;;1.65;1.55;;;;;;;;;;10367448;28;20037;-58
2023/08/03 03:52:00;;;;;;;1.63;1.52;;;;;;;;;;10368412;28;20033;-58
2023/08/03 03:57:01;;;;;;;1.83;1.42;;;;;;;;;;10368280;28;20030;-58
2023/08/03 04:02:01;;;;;;;1.50;1.40;;;;;;;;;;10368194;28;20037;-58
2023/08/03 04:07:02;;;;;;;2.38;1.73;;;;;;;;;;10367465;28;20030;-57
2023/08/03 04:12:03;;;;;;;2.13;1.70;;;;;;;;;;10367733;28;20064;-57
2023/08/03 04:17:04;;;;;;;1.50;1.33;;;;;;;;;;10367911;28;20036;-58
2023/08/03 04:22:05;;;;;;;1.67;1.58;;;;;;;;;;10367489;28;20117;-58
2023/08/03 04:27:06;;;;;;;1.75;1.42;;;;;;;;;;10367658;28;20504;-58
2023/08/03 04:32:07;;;;;;;1.90;1.70;;;;;;;;;;10367172;28;20044;-57
2023/08/03 04:37:07;;;;;;;2.70;1.67;;;;;;;;;;10367614;28;20036;-58
2023/08/03 04:42:08;;;;;;;1.70;1.60;;;;;;;;;;10366851;28;20026;-57
2023/08/03 04:47:09;;;;;;;1.75;1.65;;;;;;;;;;10366508;28;20030;-57
2023/08/03 04:52:09;;;;;;;1.92;1.70;;;;;;;;;;10366690;28;20026;-58
2023/08/03 04:57:10;;;;;;;8.63;1.52;;;;;;;;;;10368288;28;20034;-58
2023/08/03 05:02:11;;;;;;;6.45;1.60;;;;;;;;;;10374074;28;20026;-58
2023/08/03 05:07:11;;;;;;;4.50;1.90;;;;;;;;;;10373828;28;20393;-58
2023/08/03 05:12:12;;;;;;;2.08;1.50;;;;;;;;;;10374718;28;20462;-57
2023/08/03 05:17:12;;;;;;;6.53;1.42;;;;;;;;;;10373933;28;20477;-58
2023/08/03 05:22:13;;;;;;;1.70;1.50;;;;;;;;;;10373246;28;20100;-58
2023/08/03 05:27:14;;;;;;;2.22;1.90;;;;;;;;;;10372209;28;20397;-58
2023/08/03 05:32:14;;;;;;;1.60;1.50;;;;;;;;;;10371395;28;20385;-57
2023/08/03 05:37:15;;;;;;;2.13;1.50;;;;;;;;;;10372469;28;20033;-57
2023/08/03 05:42:17;;;;;;;3.00;1.60;;;;;;;;;;10372766;28;20156;-57
2023/08/03 05:47:18;;;;;;;10.73;1.77;;;;;;;;;;10371701;28;20037;-59
2023/08/03 05:52:19;;;;;;;7.75;2.90;;;;;;;;;;10390569;23;20082;-50
2023/08/03 05:57:19;;;;;;;9.00;3.38;;;;;;;;;;10372707;28;20474;-48
2023/08/03 06:02:47;;;;;;;6.65;3.25;;;;;;;;;;10371427;28;20021;-48
2023/08/03 06:07:47;;;;;;;9.20;3.40;;;;;;;;;;10368347;28;20115;-53
2023/08/03 06:12:48;;;;;;;12.05;3.55;;;;;;;;;;10370214;28;20424;-58
2023/08/03 06:17:48;;;;;;;23.95;4.47;;;;;;;;;;10369850;28;20635;-59
2023/08/03 06:22:49;;;;;;;15.13;4.30;;;;;;;;;;10370772;28;20359;-59
2023/08/03 06:27:50;;;;;;;16.60;4.55;;;;;;;;;;10370472;28;20038;-59
2023/08/03 06:32:50;;;;;;;13.07;4.10;;;;;;;;;;10370436;28;20057;-59
2023/08/03 06:37:53;;;;;;;10.60;3.75;;;;;;;;;;10370754;28;20033;-61
2023/08/03 06:42:54;;;;;;;8.90;3.90;;;;;;;;;;10370016;28;20493;-59
2023/08/03 06:47:55;;;;;;;11.15;3.88;;;;;;;;;;10369758;28;20037;-60
2023/08/03 06:52:57;;;;;;;14.80;3.90;;;;;;;;;;10369644;28;20181;-59
2023/08/03 06:57:58;;;;;;;11.85;4.05;;;;;;;;;;10370032;28;20044;-60
2023/08/03 07:02:58;;;;;;;10.00;3.50;;;;;;;;;;10369443;28;20045;-60
2023/08/03 07:07:59;;;;;;;11.48;3.72;;;;;;;;;;10368990;28;20061;-63
2023/08/03 07:12:59;;;;;;;6.53;3.33;;;;;;;;;;10369013;28;20022;-63
2023/08/03 07:18:05;;;;;;;6.13;3.80;;;;;;;;;;10368647;28;20088;-62
2023/08/03 07:23:07;;;;;;;7.43;3.35;;;;;;;;;;10368468;28;20029;-61
2023/08/03 07:28:07;;;;;;;9.38;3.72;;;;;;;;;;10368401;28;20030;-59
2023/08/03 07:33:08;;;;;;;7.57;3.90;;;;;;;;;;10368866;28;20022;-60
2023/08/03 07:38:09;;;;;;;6.78;3.75;;;;;;;;;;10368722;28;20033;-59
2023/08/03 07:43:09;;;;;;;10.48;3.38;;;;;;;;;;10367887;28;20026;-60
2023/08/03 07:48:10;;;;;;;7.25;3.95;;;;;;;;;;10368240;28;20030;-60
2023/08/03 07:53:10;;;;;;;9.07;3.92;;;;;;;;;;10367701;28;20497;-59
2023/08/03 07:58:12;;;;;;;10.02;3.92;;;;;;;;;;10367716;28;20497;-59
2023/08/03 08:03:12;;;;;;;5.28;3.40;;;;;;;;;;10366647;28;20026;-63
2023/08/03 08:08:13;;;;;;;8.07;3.75;;;;;;;;;;10366398;28;20030;-64
2023/08/03 08:13:16;;;;;;;5.72;3.15;;;;;;;;;;10367947;28;20088;-60
2023/08/03 08:18:16;;;;;;;6.40;3.53;;;;;;;;;;10367313;28;20026;-59
2023/08/03 08:23:17;;;;;;;6.05;3.05;;;;;;;;;;10367882;28;20022;-59
2023/08/03 08:28:18;;;;;;;8.88;4.35;;;;;;;;;;10367629;28;20030;-61
2023/08/03 08:33:19;;;;;;;5.50;3.38;;;;;;;;;;10372164;28;20038;-64
2023/08/03 08:38:20;;;;;;;9.30;3.92;;;;;;;;;;10375286;28;20054;-59
2023/08/03 08:43:20;;;;;;;6.28;3.80;;;;;;;;;;10374628;28;20616;-59
2023/08/03 08:48:21;;;;;;;9.70;3.63;;;;;;;;;;10374304;28;20029;-59
2023/08/03 08:53:21;;;;;;;6.43;3.67;;;;;;;;;;10374323;28;20049;-59
2023/08/03 08:58:24;;;;;;;7.10;3.75;;;;;;;;;;10374589;28;20041;-60
2023/08/03 09:03:24;;;;;;;7.55;4.40;;;;;;;;;;10373925;28;20123;-60
2023/08/03 09:08:27;;;;;;;6.40;3.90;;;;;;;;;;10372919;28;20037;-63
2023/08/03 09:13:37;;;;;;;5.63;3.53;;;;;;;;;;10373933;28;20205;-60
2023/08/03 09:18:44;;;;;;;4.50;3.25;;;;;;;;;;10373342;28;20509;-64
2023/08/03 09:23:44;;;;;;;8.27;4.10;;;;;;;;;;10372935;28;20029;-60
2023/08/03 09:28:45;;;;;;;7.60;4.03;;;;;;;;;;10373222;28;20038;-59
2023/08/03 09:33:58;;;;;;;6.22;3.97;;;;;;;;;;10372408;28;20030;-59
2023/08/03 09:39:13;;;;;;;8.40;4.10;;;;;;;;;;10372930;28;20026;-59
2023/08/03 09:44:16;;;;;;;7.05;4.10;;;;;;;;;;10371933;28;20029;-59
2023/08/03 09:49:17;;;;;;;7.63;4.13;;;;;;;;;;10370728;28;20482;-59
2023/08/03 09:55:10;;;;;;;7.80;3.97;;;;;;;;;;10371639;28;20133;-59
2023/08/03 10:00:13;;;;;;;6.90;3.70;;;;;;;;;;10359149;28;20042;-60
2023/08/03 10:05:18;;;;;;;6.32;3.95;;;;;;;;;;10371427;28;20571;-60
2023/08/03 10:10:21;;;;;;;8.13;4.13;;;;;;;;;;10371173;28;20433;-60
2023/08/03 10:15:23;;;;;;;7.93;4.80;;;;;;;;;;10369791;28;20025;-59
2023/08/03 10:20:25;;;;;;;6.50;4.45;;;;;;;;;;10369644;28;20493;-59
2023/08/03 10:25:25;;;;;;;7.50;4.43;;;;;;;;;;10370010;28;20032;-59
2023/08/03 10:31:15;;;;;;;5.63;3.75;;;;;;;;;;10370972;28;20358;-59
2023/08/03 10:36:30;;;;;;;7.47;4.22;;;;;;;;;;10369406;28;20042;-60
2023/08/03 10:41:38;;;;;;;7.32;4.38;;;;;;;;;;10370578;28;20038;-60
2023/08/03 10:46:47;;;;;;;5.55;4.18;;;;;;;;;;10370297;28;20032;-59
2023/08/03 10:51:53;;;;;;;7.05;4.65;;;;;;;;;;10369898;28;20053;-59
2023/08/03 10:57:23;;;;;;;5.88;3.83;;;;;;;;;;10369101;28;20182;-60
2023/08/03 11:02:28;;;;;;;6.60;4.10;;;;;;;;;;10369377;28;20056;-58
2023/08/03 11:07:43;;;;;;;7.90;4.53;;;;;;;;;;10369566;28;20311;-59
2023/08/03 11:12:44;;;;;;;8.15;4.57;;;;;;;;;;10369431;28;20152;-59
2023/08/03 11:17:49;;;;;;;5.78;4.05;;;;;;;;;;10369329;28;20042;-62
2023/08/03 11:22:50;;;;;;;8.13;4.15;;;;;;;;;;10368655;28;20352;-59
2023/08/03 11:27:51;;;;;;;6.63;3.90;;;;;;;;;;10368320;28;20040;-59
2023/08/03 11:32:58;;;;;;;7.85;4.40;;;;;;;;;;10368729;28;20028;-61
2023/08/03 11:37:59;;;;;;;7.17;4.23;;;;;;;;;;10368234;28;20533;-59
2023/08/03 11:43:01;;;;;;;10.38;3.92;;;;;;;;;;10368128;28;20436;-60
2023/08/03 11:48:02;;;;;;;5.30;3.33;;;;;;;;;;10366227;28;20521;-59
2023/08/03 11:53:02;;;;;;;8.40;4.30;;;;;;;;;;10367718;28;20049;-62
2023/08/03 11:58:09;;;;;;;11.40;4.35;;;;;;;;;;10367725;28;20033;-60
2023/08/03 12:03:17;;;;;;;7.20;4.32;;;;;;;;;;10366665;28;20280;-59
2023/08/03 12:08:21;;;;;;;9.43;4.53;;;;;;;;;;10371693;28;20478;-59
2023/08/03 12:13:22;;;;;;;9.57;4.45;;;;;;;;;;10375792;28;20022;-59
2023/08/03 12:18:24;;;;;;;7.65;4.00;;;;;;;;;;10375222;28;20034;-64
2023/08/03 12:23:25;;;;;;;9.32;4.25;;;;;;;;;;10375514;28;20129;-59
2023/08/03 12:28:25;;;;;;;10.05;4.22;;;;;;;;;;10374918;28;20036;-59
2023/08/03 12:33:26;;;;;;;8.70;4.32;;;;;;;;;;10375032;28;20029;-64
2023/08/03 12:38:26;;;;;;;7.32;3.70;;;;;;;;;;10373916;28;20026;-59
2023/08/03 12:43:27;;;;;;;6.80;4.15;;;;;;;;;;10374829;28;20033;-59
2023/08/03 12:48:28;;;;;;;6.90;4.15;;;;;;;;;;10373979;28;20423;-65
2023/08/03 12:53:28;;;;;;;6.75;4.10;;;;;;;;;;10373472;28;20096;-59
2023/08/03 12:58:29;;;;;;;5.60;3.40;;;;;;;;;;10374888;28;20046;-59
2023/08/03 13:03:29;;;;;;;8.75;3.67;;;;;;;;;;10373650;28;20491;-59
2023/08/03 13:08:30;;;;;;;7.45;3.35;;;;;;;;;;10373374;28;20029;-59
2023/08/03 13:13:31;;;;;;;7.90;4.00;;;;;;;;;;10373580;28;20037;-63
2023/08/03 13:18:32;;;;;;;10.57;4.32;;;;;;;;;;10387059;28;20037;-60
2023/08/03 13:23:33;;;;;;;34.53;5.10;;;;;;;;;;10372840;28;20022;-59
2023/08/03 13:28:34;;;;;;;24.42;4.13;;;;;;;;;;10371957;28;20033;-57
2023/08/03 13:33:34;;;;;;;26.40;5.20;;;;;;;;;;10372592;28;20100;-65
2023/08/03 13:38:35;;;;;;;24.13;4.53;;;;;;;;;;10372479;28;20033;-63
2023/08/03 13:43:37;;;;;;;24.65;5.45;;;;;;;;;;10372067;28;20033;-60
2023/08/03 13:48:38;;;;;;;16.27;5.18;;;;;;;;;;10372158;28;20522;-59
2023/08/03 13:53:38;;;;;;;15.80;4.90;;;;;;;;;;10371878;28;20049;-59
2023/08/03 13:58:39;;;;;;;10.55;3.75;;;;;;;;;;10371644;28;20036;-59
2023/08/03 14:03:40;;;;;;;12.30;3.83;;;;;;;;;;10372346;28;20038;-59
2023/08/03 14:08:40;;;;;;;11.90;3.88;;;;;;;;;;10371791;28;20033;-59
2023/08/03 14:13:41;;;;;;;11.00;3.88;;;;;;;;;;10371496;28;20033;-58
2023/08/03 14:18:41;;;;;;;8.77;3.90;;;;;;;;;;10371344;28;20048;-59
2023/08/03 14:23:42;;;;;;;11.10;4.22;;;;;;;;;;10370677;28;20021;-59
2023/08/03 14:28:43;;;;;;;7.07;3.88;;;;;;;;;;10369888;28;20025;-59
2023/08/03 14:33:43;;;;;;;7.63;4.20;;;;;;;;;;10370648;28;20033;-59
2023/08/03 14:38:44;;;;;;;5.65;3.83;;;;;;;;;;10370699;28;20030;-59
2023/08/03 14:43:45;;;;;;;5.45;3.33;;;;;;;;;;10370358;28;20193;-59
2023/08/03 14:48:45;;;;;;;6.80;3.75;;;;;;;;;;10370094;28;20045;-59
2023/08/03 14:53:46;;;;;;;6.45;4.18;;;;;;;;;;10384911;28;20096;-59
2023/08/03 14:58:47;;;;;;;8.82;3.20;;;;;;;;;;10369911;28;20040;-60
2023/08/03 15:03:47;;;;;;;9.65;3.90;;;;;;;;;;10368993;28;20061;-59
2023/08/03 15:08:48;;;;;;;5.95;3.70;;;;;;;;;;10368982;28;20033;-59
2023/08/03 15:13:49;;;;;;;10.23;3.72;;;;;;;;;;10369387;28;20041;-59
2023/08/03 15:18:49;;;;;;;3.78;2.85;;;;;;;;;;10369137;28;20410;-59
2023/08/03 15:23:52;;;;;;;10.52;4.10;;;;;;;;;;10368374;28;20022;-59
2023/08/03 15:28:52;;;;;;;6.22;3.88;;;;;;;;;;10368200;28;20030;-59
2023/08/03 15:33:54;;;;;;;5.57;3.60;;;;;;;;;;10367986;28;20022;-61
2023/08/03 15:38:55;;;;;;;7.47;3.45;;;;;;;;;;10367790;28;20042;-61
2023/08/03 15:43:56;;;;;;;5.32;3.40;;;;;;;;;;10367319;28;20050;-59
2023/08/03 15:48:57;;;;;;;5.07;3.50;;;;;;;;;;10367543;28;20068;-59
2023/08/03 15:53:58;;;;;;;4.90;3.30;;;;;;;;;;10368112;28;20375;-61
2023/08/03 15:59:00;;;;;;;8.15;3.45;;;;;;;;;;10366948;28;20475;-59
2023/08/03 16:04:00;;;;;;;4.32;3.22;;;;;;;;;;10367730;28;20029;-59
2023/08/03 16:09:01;;;;;;;6.72;3.40;;;;;;;;;;10365829;28;20038;-59
2023/08/03 16:14:06;;;;;;;8.27;3.90;;;;;;;;;;10365130;28;20038;-60
2023/08/03 16:19:07;;;;;;;5.03;3.30;;;;;;;;;;10365792;28;20040;-70
2023/08/03 16:24:08;;;;;;;5.65;3.35;;;;;;;;;;10367292;28;20035;-69
2023/08/03 16:29:08;;;;;;;6.55;3.28;;;;;;;;;;10367395;28;20037;-70
2023/08/03 16:34:09;;;;;;;4.05;3.05;;;;;;;;;;10367654;28;20030;-70
2023/08/03 16:39:09;;;;;;;4.82;3.33;;;;;;;;;;10367212;28;20036;-68
2023/08/03 16:44:10;;;;;;;5.78;3.13;;;;;;;;;;10367509;28;20030;-62
2023/08/03 16:49:11;;;;;;;6.63;3.10;;;;;;;;;;10367360;28;20117;-70
2023/08/03 16:54:12;;;;;;;6.38;3.25;;;;;;;;;;10369901;28;20050;-69
2023/08/03 16:59:12;;;;;;;7.28;3.40;;;;;;;;;;10373827;28;20025;-67
2023/08/03 17:04:13;;;;;;;8.25;3.08;;;;;;;;;;10373919;28;20029;-69
2023/08/03 17:09:13;;;;;;;7.22;3.20;;;;;;;;;;10373776;28;20029;-70
2023/08/03 17:14:15;;;;;;;6.20;3.00;;;;;;;;;;10372954;28;20109;-68
2023/08/03 17:19:16;;;;;;;8.82;2.85;;;;;;;;;;10373148;28;20026;-69
2023/08/03 17:24:17;;;;;;;7.28;3.13;;;;;;;;;;10373595;28;20382;-69
2023/08/03 17:29:17;;;;;;;5.53;2.83;;;;;;;;;;10373366;28;20497;-65
2023/08/03 17:34:19;;;;;;;3.58;2.90;;;;;;;;;;10373402;28;20481;-70
2023/08/03 17:39:19;;;;;;;7.10;2.67;;;;;;;;;;10372266;28;20034;-62
2023/08/03 17:44:21;;;;;;;4.22;2.80;;;;;;;;;;10372242;28;20466;-63
2023/08/03 17:49:23;;;;;;;9.82;3.50;;;;;;;;;;10371239;28;20057;-69
2023/08/03 17:54:24;;;;;;;6.10;2.70;;;;;;;;;;10369562;28;20080;-64
2023/08/03 17:59:25;;;;;;;5.65;3.00;;;;;;;;;;10371790;28;20088;-59
2023/08/03 18:04:31;;;;;;;4.78;2.95;;;;;;;;;;10371662;28;20029;-65
2023/08/03 18:09:33;;;;;;;13.07;2.70;;;;;;;;;;10371223;28;20030;-62
2023/08/03 18:14:35;;;;;;;5.82;2.60;;;;;;;;;;10371549;28;20036;-59
2023/08/03 18:19:35;;;;;;;4.43;2.75;;;;;;;;;;10370854;28;20504;-60
2023/08/03 18:24:36;;;;;;;3.60;2.63;;;;;;;;;;10370907;28;20038;-66
2023/08/03 18:29:36;;;;;;;4.15;2.92;;;;;;;;;;10363328;28;20029;-63
2023/08/03 18:34:38;;;;;;;4.90;3.22;;;;;;;;;;10368877;28;20022;-59
2023/08/03 18:39:39;;;;;;;3.15;2.78;;;;;;;;;;10370345;28;20080;-71
2023/08/03 18:44:40;;;;;;;3.95;2.70;;;;;;;;;;10370595;28;20080;-73
2023/08/03 18:49:40;;;;;;;3.58;2.47;;;;;;;;;;10369130;28;20025;-62
2023/08/03 18:54:41;;;;;;;3.38;2.40;;;;;;;;;;10368353;28;20054;-61
2023/08/03 18:59:41;;;;;;;16.45;4.03;;;;;;;;;;10369670;28;20034;-65
2023/08/03 19:04:43;;;;;;;8.82;3.38;;;;;;;;;;10369078;28;20030;-61
2023/08/03 19:09:43;;;;;;;6.82;3.20;;;;;;;;;;10369579;28;20041;-68
2023/08/03 19:14:56;;;;;;;3.97;2.22;;;;;;;;;;10369362;28;20025;-71
2023/08/03 19:19:57;;;;;;;8.77;3.08;;;;;;;;;;10368070;28;20390;-61
2023/08/03 19:24:57;;;;;;;5.20;2.83;;;;;;;;;;10365956;28;20018;-64
2023/08/03 19:29:58;;;;;;;5.97;2.70;;;;;;;;;;10361149;28;20034;-59
2023/08/03 19:34:58;;;;;;;9.23;3.38;;;;;;;;;;10368116;28;20037;-74
2023/08/03 19:39:59;;;;;;;3.92;2.47;;;;;;;;;;10364048;28;20049;-67
2023/08/03 19:45:00;;;;;;;6.50;2.67;;;;;;;;;;10368407;28;20045;-59
2023/08/03 19:50:00;;;;;;;3.33;2.63;;;;;;;;;;10367514;28;20040;-61
2023/08/03 19:55:01;;;;;;;5.13;2.90;;;;;;;;;;10366980;28;20025;-60
2023/08/03 20:00:03;;;;;;;5.32;2.92;;;;;;;;;;10367675;28;20653;-61
2023/08/03 20:05:04;;;;;;;3.75;2.60;;;;;;;;;;10367206;28;20030;-63
2023/08/03 20:10:05;;;;;;;4.53;2.42;;;;;;;;;;10367041;28;20030;-62
2023/08/03 20:15:10;;;;;;;3.70;2.17;;;;;;;;;;10357838;28;20030;-58
2023/08/03 20:20:11;;;;;;;6.03;2.38;;;;;;;;;;10365655;28;20408;-59
2023/08/03 20:25:11;;;;;;;3.58;2.55;;;;;;;;;;10367055;28;20037;-59
2023/08/03 20:30:12;;;;;;;3.83;2.30;;;;;;;;;;10367555;28;20041;-58
2023/08/03 20:35:13;;;;;;;3.75;2.47;;;;;;;;;;10373736;28;20300;-52
2023/08/03 20:40:13;;;;;;;5.22;2.47;;;;;;;;;;10373030;28;20033;-52
2023/08/03 20:45:14;;;;;;;3.40;2.50;;;;;;;;;;10352394;28;20319;-54
2023/08/03 20:50:15;;;;;;;5.65;2.53;;;;;;;;;;10338287;28;20062;-49
2023/08/03 20:55:15;;;;;;;3.65;2.65;;;;;;;;;;10337421;28;20184;-54
2023/08/03 21:00:16;;;;;;;7.25;2.60;;;;;;;;;;10338193;28;20036;-56
2023/08/03 21:05:20;;;;;;;5.10;2.33;;;;;;;;;;10338733;28;20096;-58
2023/08/03 21:10:21;;;;;;;7.32;2.45;;;;;;;;;;10336955;28;20045;-56
2023/08/03 21:15:24;;;;;;;8.48;3.10;;;;;;;;;;10337836;28;20030;-58
2023/08/03 21:20:25;;;;;;;7.05;3.10;;;;;;;;;;10337724;28;20018;-59
2023/08/03 21:25:26;;;;;;;8.40;2.53;;;;;;;;;;10337329;28;20354;-55
2023/08/03 21:30:26;;;;;;;3.50;2.60;;;;;;;;;;10336994;28;20026;-58
2023/08/03 21:35:27;;;;;;;4.22;2.28;;;;;;;;;;10336929;28;20378;-57
2023/08/03 21:40:28;;;;;;;7.07;3.05;;;;;;;;;;10336340;28;20030;-59
2023/08/03 21:45:28;;;;;;;8.02;2.80;;;;;;;;;;10336370;28;20464;-58
2023/08/03 21:50:36;;;;;;;5.22;2.45;;;;;;;;;;10336591;28;20054;-59
2023/08/03 21:55:38;;;;;;;5.10;2.47;;;;;;;;;;10341896;28;20084;-55
2023/08/03 22:00:38;;;;;;;4.40;2.55;;;;;;;;;;10368698;28;20355;-58
2023/08/03 22:05:39;;;;;;;5.78;2.75;;;;;;;;;;10370203;28;20030;-60
2023/08/03 22:10:40;;;;;;;14.18;2.90;;;;;;;;;;10364157;28;20080;-58
2023/08/03 22:15:40;;;;;;;10.88;3.05;;;;;;;;;;10370463;28;20474;-59
2023/08/03 22:20:41;;;;;;;13.38;2.72;;;;;;;;;;10370360;28;20022;-59
2023/08/03 22:25:42;;;;;;;12.07;2.95;;;;;;;;;;10370963;28;20026;-56
2023/08/03 22:30:42;;;;;;;10.02;3.20;;;;;;;;;;10370556;28;20401;-56
2023/08/03 22:35:43;;;;;;;10.80;2.80;;;;;;;;;;10370778;28;20026;-55
2023/08/03 22:40:44;;;;;;;10.43;3.03;;;;;;;;;;10370034;28;20113;-61
2023/08/03 22:45:44;;;;;;;3.97;2.60;;;;;;;;;;10370287;28;20386;-54
2023/08/03 22:50:45;;;;;;;3.63;2.53;;;;;;;;;;10370389;28;20460;-58
2023/08/03 22:55:47;;;;;;;7.43;2.58;;;;;;;;;;10369791;28;20029;-56
2023/08/03 23:00:47;;;;;;;5.22;2.85;;;;;;;;;;10369646;28;20208;-54
2023/08/03 23:05:48;;;;;;;6.43;2.67;;;;;;;;;;10367809;28;20100;-53
2023/08/03 23:10:48;;;;;;;6.50;2.58;;;;;;;;;;10368964;28;20118;-56
2023/08/03 23:15:49;;;;;;;3.88;2.60;;;;;;;;;;10368352;28;20116;-59
2023/08/03 23:20:56;;;;;;;4.25;2.83;;;;;;;;;;10368617;28;20045;-59
2023/08/03 23:26:04;;;;;;;4.67;2.97;;;;;;;;;;10368648;28;20041;-58
2023/08/03 23:31:05;;;;;;;5.03;2.78;;;;;;;;;;10368906;28;20479;-58
2023/08/03 23:36:06;;;;;;;6.10;3.03;;;;;;;;;;10368415;28;20478;-54
2023/08/03 23:41:07;;;;;;;3.53;2.60;;;;;;;;;;10368242;28;20026;-55
2023/08/03 23:46:07;;;;;;;3.90;2.78;;;;;;;;;;10367987;28;20496;-55
2023/08/03 23:51:08;;;;;;;8.32;3.00;;;;;;;;;;10367369;28;20625;-54
2023/08/03 23:56:08;;;;;;;4.85;3.08;;;;;;;;;;10365525;28;20410;-57
